Time;durP1;ratioP1;P1;durP2;ratioP2;P2;SDS_P1;SDS_P2;PMS_P1;PMS_P2;Temp;Humidity;BMP_temperature;BMP_pressure;BME280_temperature;BME280_humidity;BME280_pressure;Samples;Min_cycle;Max_cycle;Signal;HPM_P1;HPM_P2
2022/07/11 00:01:38;;;;;;;;;;;;;;;22.39;100.00;99597.91;5057334;28;19959;-44
2022/07/11 00:04:03;;;;;;;;;;;;;;;22.78;100.00;99601.22;5056835;28;20358;-44
2022/07/11 00:06:28;;;;;;;;;;;;;;;22.87;100.00;99600.56;5054886;28;19969;-44
2022/07/11 00:08:53;;;;;;;;;;;;;;;22.84;100.00;99594.72;5056779;28;19986;-44
2022/07/11 00:11:19;;;;;;;;;;;;;;;22.85;100.00;99594.56;5056688;28;20034;-43
2022/07/11 00:13:44;;;;;;;;;;;;;;;22.88;100.00;99594.38;5056697;28;20393;-43
2022/07/11 00:16:09;;;;;;;;;;;;;;;22.77;100.00;99589.06;5056269;28;19930;-44
2022/07/11 00:18:34;;;;;;;;;;;;;;;22.78;100.00;99593.34;5056573;28;19920;-43
2022/07/11 00:21:00;;;;;;;;;;;;;;;22.86;100.00;99587.56;5056015;28;19916;-44
2022/07/11 00:23:25;;;;;;;;;;;;;;;22.73;100.00;99592.84;5056769;28;19956;-48
2022/07/11 00:25:51;;;;;;;;;;;;;;;22.65;100.00;99589.94;5056254;28;20860;-44
2022/07/11 00:28:16;;;;;;;;;;;;;;;22.60;100.00;99586.81;5056177;28;19930;-43
2022/07/11 00:30:41;;;;;;;;;;;;;;;22.67;100.00;99591.53;5055592;28;20408;-43
2022/07/11 00:33:07;;;;;;;;;;;;;;;22.38;100.00;99588.38;5056454;28;20396;-43
2022/07/11 00:35:32;;;;;;;;;;;;;;;22.68;100.00;99580.06;5056056;28;20256;-43
2022/07/11 00:37:57;;;;;;;;;;;;;;;22.49;100.00;99577.94;5055991;28;19916;-43
2022/07/11 00:40:23;;;;;;;;;;;;;;;22.27;100.00;99572.56;5055027;28;19916;-43
2022/07/11 00:42:48;;;;;;;;;;;;;;;22.24;100.00;99580.66;5055532;28;20369;-44
2022/07/11 00:45:13;;;;;;;;;;;;;;;21.20;100.00;99575.50;5056716;28;19927;-44
2022/07/11 00:47:38;;;;;;;;;;;;;;;20.64;100.00;99573.03;5055415;28;19916;-43
2022/07/11 00:50:04;;;;;;;;;;;;;;;21.22;100.00;99571.00;5055590;28;20011;-44
2022/07/11 00:52:29;;;;;;;;;;;;;;;20.60;100.00;99566.34;5053760;28;20698;-43
2022/07/11 00:54:54;;;;;;;;;;;;;;;20.05;100.00;99568.88;5056005;28;19916;-42
2022/07/11 00:57:20;;;;;;;;;;;;;;;20.31;100.00;99563.78;5055245;28;19921;-43
2022/07/11 00:59:45;;;;;;;;;;;;;;;19.83;100.00;99568.50;5054251;28;20039;-43
2022/07/11 01:02:11;;;;;;;;;;;;;;;20.44;100.00;99569.09;5054138;28;20000;-43
2022/07/11 01:04:36;;;;;;;;;;;;;;;20.31;100.00;99569.00;5054841;28;20019;-44
2022/07/11 01:07:01;;;;;;;;;;;;;;;20.45;100.00;99571.56;5054010;28;20312;-44
2022/07/11 01:09:26;;;;;;;;;;;;;;;20.04;100.00;99571.56;5055302;28;20031;-43
2022/07/11 01:11:52;;;;;;;;;;;;;;;20.41;100.00;99570.13;5054953;28;19925;-43
2022/07/11 01:14:18;;;;;;;;;;;;;;;19.96;100.00;99576.44;5055194;28;19916;-44
2022/07/11 01:16:43;;;;;;;;;;;;;;;19.96;100.00;99579.91;5055432;28;19925;-43
2022/07/11 01:19:09;;;;;;;;;;;;;;;19.94;100.00;99581.75;5054161;28;20443;-42
2022/07/11 01:21:38;;;;;;;;;;;;;;;20.16;100.00;99585.66;5054711;28;20421;-43
2022/07/11 01:24:04;;;;;;;;;;;;;;;19.95;100.00;99580.81;5055067;28;20066;-43
2022/07/11 01:26:30;;;;;;;;;;;;;;;19.81;100.00;99588.66;5054872;28;19923;-43
2022/07/11 01:28:57;;;;;;;;;;;;;;;20.04;100.00;99577.63;5054660;28;19926;-42
2022/07/11 01:31:22;;;;;;;;;;;;;;;19.91;100.00;99576.75;5054469;28;19917;-43
2022/07/11 01:33:47;;;;;;;;;;;;;;;20.36;100.00;99581.78;5053986;28;19966;-42
2022/07/11 01:36:13;;;;;;;;;;;;;;;20.19;100.00;99577.63;5054082;28;19927;-42
2022/07/11 01:38:38;;;;;;;;;;;;;;;19.94;100.00;99575.72;5054167;28;19942;-43
2022/07/11 01:41:04;;;;;;;;;;;;;;;19.51;100.00;99583.50;5054064;28;19923;-42
2022/07/11 01:43:29;;;;;;;;;;;;;;;19.84;100.00;99576.28;5054549;28;19923;-43
2022/07/11 01:45:55;;;;;;;;;;;;;;;20.03;100.00;99580.38;5054330;28;19932;-42
2022/07/11 01:48:20;;;;;;;;;;;;;;;20.11;100.00;99575.47;5054771;28;20405;-42
2022/07/11 01:50:46;;;;;;;;;;;;;;;20.48;100.00;99576.63;5052992;28;19920;-42
2022/07/11 01:53:11;;;;;;;;;;;;;;;20.55;100.00;99576.22;5054654;28;19927;-43
2022/07/11 01:55:36;;;;;;;;;;;;;;;20.34;100.00;99574.03;5051045;28;20011;-42
2022/07/11 01:58:02;;;;;;;;;;;;;;;20.18;100.00;99570.72;5055289;28;20361;-42
2022/07/11 02:00:27;;;;;;;;;;;;;;;20.33;100.00;99576.78;5054328;28;19988;-42
2022/07/11 02:02:52;;;;;;;;;;;;;;;20.35;100.00;99575.72;5054612;28;20404;-42
2022/07/11 02:05:18;;;;;;;;;;;;;;;20.31;100.00;99573.41;5054016;28;20304;-43
2022/07/11 02:10:29;;;;;;;;;;;;;;;20.39;100.00;99574.59;5054647;28;19923;-42
2022/07/11 02:12:55;;;;;;;;;;;;;;;20.29;100.00;99570.88;5054180;28;20325;-44
2022/07/11 02:15:20;;;;;;;;;;;;;;;19.70;100.00;99573.63;5054537;28;19920;-42
2022/07/11 02:17:46;;;;;;;;;;;;;;;19.80;100.00;99573.94;5054955;28;19920;-42
2022/07/11 02:20:11;;;;;;;;;;;;;;;20.21;100.00;99570.53;5054433;28;19916;-43
2022/07/11 02:22:36;;;;;;;;;;;;;;;20.04;100.00;99572.41;5054459;28;19917;-42
2022/07/11 02:25:01;;;;;;;;;;;;;;;19.90;100.00;99564.59;5054379;28;19916;-43
2022/07/11 02:27:27;;;;;;;;;;;;;;;20.02;100.00;99571.66;5054412;28;19923;-43
2022/07/11 02:29:52;;;;;;;;;;;;;;;20.34;100.00;99574.03;5053801;28;20237;-42
2022/07/11 02:32:17;;;;;;;;;;;;;;;19.88;100.00;99568.22;5054553;28;20361;-42
2022/07/11 02:34:43;;;;;;;;;;;;;;;19.97;100.00;99568.50;5054540;28;20275;-42
2022/07/11 02:37:08;;;;;;;;;;;;;;;20.06;100.00;99559.25;5054899;28;19920;-42
2022/07/11 02:39:33;;;;;;;;;;;;;;;19.95;100.00;99567.75;5053688;28;19916;-43
2022/07/11 02:41:58;;;;;;;;;;;;;;;20.04;100.00;99569.78;5054220;28;20004;-43
2022/07/11 02:44:24;;;;;;;;;;;;;;;20.14;100.00;99566.59;5054369;28;19952;-42
2022/07/11 02:46:49;;;;;;;;;;;;;;;20.11;100.00;99575.47;5054262;28;19955;-42
2022/07/11 02:49:14;;;;;;;;;;;;;;;20.12;100.00;99571.13;5052989;28;19944;-42
2022/07/11 02:51:39;;;;;;;;;;;;;;;20.41;100.00;99574.50;5054249;28;19964;-43
2022/07/11 02:54:05;;;;;;;;;;;;;;;20.62;100.00;99577.56;5052463;28;19955;-43
2022/07/11 02:56:30;;;;;;;;;;;;;;;20.23;100.00;99571.25;5053679;28;20009;-42
2022/07/11 02:58:55;;;;;;;;;;;;;;;20.48;100.00;99565.31;5052631;28;20371;-44
2022/07/11 03:01:20;;;;;;;;;;;;;;;20.33;100.00;99577.59;5053817;28;20398;-42
2022/07/11 03:03:45;;;;;;;;;;;;;;;20.26;100.00;99571.09;5053788;28;19939;-43
2022/07/11 03:06:11;;;;;;;;;;;;;;;20.66;100.00;99571.16;5054122;28;20500;-43
2022/07/11 03:08:36;;;;;;;;;;;;;;;20.86;100.00;99575.13;5053817;28;19917;-43
2022/07/11 03:11:02;;;;;;;;;;;;;;;21.02;100.00;99569.72;5053286;28;19974;-44
2022/07/11 03:13:27;;;;;;;;;;;;;;;21.01;100.00;99568.06;5053641;28;19928;-42
2022/07/11 03:15:52;;;;;;;;;;;;;;;20.72;100.00;99564.72;5053721;28;19925;-42
2022/07/11 03:18:17;;;;;;;;;;;;;;;20.99;100.00;99564.69;5054283;28;20003;-43
2022/07/11 03:20:43;;;;;;;;;;;;;;;21.01;100.00;99568.06;5053493;28;19916;-42
2022/07/11 03:23:08;;;;;;;;;;;;;;;21.21;100.00;99570.19;5053955;28;19977;-41
2022/07/11 03:25:33;;;;;;;;;;;;;;;20.89;100.00;99565.28;5054547;28;19920;-42
2022/07/11 03:27:58;;;;;;;;;;;;;;;20.74;100.00;99571.53;5053447;28;19949;-43
2022/07/11 03:30:24;;;;;;;;;;;;;;;21.00;100.00;99566.34;5052764;28;19916;-42
2022/07/11 03:32:49;;;;;;;;;;;;;;;20.81;100.00;99562.31;5053317;28;19923;-42
2022/07/11 03:37:58;;;;;;;;;;;;;;;20.73;100.00;99563.75;5053018;28;20349;-41
2022/07/11 03:40:23;;;;;;;;;;;;;;;21.26;100.00;99562.84;5053861;28;19917;-42
2022/07/11 03:42:48;;;;;;;;;;;;;;;21.27;100.00;99569.75;5052908;28;20711;-42
2022/07/11 03:45:14;;;;;;;;;;;;;;;21.37;100.00;99569.13;5053593;28;21112;-43
2022/07/11 03:47:39;;;;;;;;;;;;;;;21.20;100.00;99563.25;5052675;28;20238;-42
2022/07/11 03:50:04;;;;;;;;;;;;;;;21.04;100.00;99554.75;5052994;28;20003;-42
2022/07/11 03:52:30;;;;;;;;;;;;;;;21.18;100.00;99562.50;5052362;28;19917;-42
2022/07/11 03:54:55;;;;;;;;;;;;;;;21.23;100.00;99560.44;5053644;28;20357;-42
2022/07/11 03:57:20;;;;;;;;;;;;;;;21.14;100.00;99553.16;5052756;28;20019;-42
2022/07/11 03:59:45;;;;;;;;;;;;;;;21.04;100.00;99558.19;5052343;28;19975;-42
2022/07/11 04:02:10;;;;;;;;;;;;;;;20.50;100.00;99557.38;5052191;28;20020;-42
2022/07/11 04:04:36;;;;;;;;;;;;;;;20.97;100.00;99562.16;5052588;28;20174;-42
2022/07/11 04:07:01;;;;;;;;;;;;;;;21.00;100.00;99564.56;5052444;28;19995;-42
2022/07/11 04:09:26;;;;;;;;;;;;;;;20.86;100.00;99565.47;5052080;28;19951;-42
2022/07/11 04:11:51;;;;;;;;;;;;;;;21.01;100.00;99563.66;5052104;28;19963;-42
2022/07/11 04:14:17;;;;;;;;;;;;;;;20.95;100.00;99568.44;5052820;28;20077;-43
2022/07/11 04:16:42;;;;;;;;;;;;;;;20.77;100.00;99566.06;5056350;28;20010;-42
2022/07/11 04:19:07;;;;;;;;;;;;;;;20.91;100.00;99559.09;5056021;28;19916;-42
2022/07/11 04:21:32;;;;;;;;;;;;;;;20.82;100.00;99565.78;5056305;28;20039;-41
2022/07/11 04:23:57;;;;;;;;;;;;;;;21.31;100.00;99568.59;5056116;28;19967;-42
2022/07/11 04:26:23;;;;;;;;;;;;;;;21.57;100.00;99579.13;5056702;28;19927;-42
2022/07/11 04:28:48;;;;;;;;;;;;;;;21.10;100.00;99572.69;5056388;28;20445;-41
2022/07/11 04:31:13;;;;;;;;;;;;;;;21.60;100.00;99576.31;5055840;28;20141;-42
2022/07/11 04:33:38;;;;;;;;;;;;;;;21.74;100.00;99579.78;5055280;28;19939;-42
2022/07/11 04:36:04;;;;;;;;;;;;;;;21.51;100.00;99576.94;5056185;28;19927;-42
2022/07/11 04:38:29;;;;;;;;;;;;;;;20.61;100.00;99575.88;5056169;28;19924;-41
2022/07/11 04:40:54;;;;;;;;;;;;;;;20.46;100.00;99573.28;5055858;28;19924;-42
2022/07/11 04:43:19;;;;;;;;;;;;;;;20.40;100.00;99578.06;5055660;28;19920;-42
2022/07/11 04:45:45;;;;;;;;;;;;;;;21.06;100.00;99586.91;5056811;28;19916;-43
2022/07/11 04:48:10;;;;;;;;;;;;;;;20.97;100.00;99588.34;5056640;28;19952;-42
2022/07/11 04:50:35;;;;;;;;;;;;;;;20.91;100.00;99583.50;5055783;28;19916;-42
2022/07/11 04:53:01;;;;;;;;;;;;;;;21.78;100.00;99589.06;5056235;28;19917;-42
2022/07/11 04:55:26;;;;;;;;;;;;;;;20.78;100.00;99591.34;5054161;28;20279;-42
2022/07/11 04:57:52;;;;;;;;;;;;;;;20.54;100.00;99585.03;5055246;28;19966;-42
2022/07/11 05:00:17;;;;;;;;;;;;;;;19.90;100.00;99588.09;5053242;28;19927;-42
2022/07/11 05:02:43;;;;;;;;;;;;;;;19.71;100.00;99587.56;5056206;28;19916;-43
2022/07/11 05:05:08;;;;;;;;;;;;;;;19.55;100.00;99600.66;5055292;28;19917;-43
2022/07/11 05:07:33;;;;;;;;;;;;;;;19.44;100.00;99615.19;5055702;28;19924;-43
2022/07/11 05:09:58;;;;;;;;;;;;;;;19.61;100.00;99615.97;5055321;28;19990;-44
2022/07/11 05:12:24;;;;;;;;;;;;;;;19.39;100.00;99624.25;5056247;28;19916;-44
2022/07/11 05:14:49;;;;;;;;;;;;;;;19.90;100.00;99622.09;5055969;28;19913;-44
2022/07/11 05:17:15;;;;;;;;;;;;;;;19.76;100.00;99622.94;5054061;28;20441;-44
2022/07/11 05:19:40;;;;;;;;;;;;;;;20.11;100.00;99621.72;5056016;28;20617;-43
2022/07/11 05:22:05;;;;;;;;;;;;;;;20.18;100.00;99621.22;5054288;28;19966;-43
2022/07/11 05:24:30;;;;;;;;;;;;;;;20.54;100.00;99613.81;5056090;28;19931;-43
2022/07/11 05:26:56;;;;;;;;;;;;;;;20.01;100.00;99619.66;5055115;28;19921;-43
2022/07/11 05:29:21;;;;;;;;;;;;;;;20.11;100.00;99621.72;5054778;28;19916;-44
2022/07/11 05:31:50;;;;;;;;;;;;;;;20.07;100.00;99623.69;5055927;28;19917;-43
2022/07/11 05:34:15;;;;;;;;;;;;;;;20.39;100.00;99624.31;5055604;28;20365;-43
2022/07/11 05:36:43;;;;;;;;;;;;;;;20.18;100.00;99625.63;5055661;28;19920;-42
2022/07/11 05:39:08;;;;;;;;;;;;;;;19.68;100.00;99632.94;5054796;28;20298;-44
2022/07/11 05:41:33;;;;;;;;;;;;;;;20.09;100.00;99631.44;5054505;28;19920;-43
2022/07/11 05:43:58;;;;;;;;;;;;;;;20.15;100.00;99631.91;5054942;28;19920;-44
2022/07/11 05:46:24;;;;;;;;;;;;;;;19.66;100.00;99632.22;5055253;28;19923;-43
2022/07/11 05:48:49;;;;;;;;;;;;;;;19.95;100.00;99627.88;5054887;28;20415;-42
2022/07/11 05:51:16;;;;;;;;;;;;;;;19.83;100.00;99633.84;5055150;28;20059;-42
2022/07/11 05:53:41;;;;;;;;;;;;;;;19.96;100.00;99637.41;5055023;28;20420;-42
2022/07/11 05:56:07;;;;;;;;;;;;;;;19.13;100.00;99634.41;5054668;28;19921;-42
2022/07/11 05:58:32;;;;;;;;;;;;;;;19.83;100.00;99636.47;5053930;28;19924;-42
2022/07/11 06:00:58;;;;;;;;;;;;;;;19.92;100.00;99635.91;5054568;28;19977;-42
2022/07/11 06:03:23;;;;;;;;;;;;;;;19.69;100.00;99644.31;5053756;28;19922;-43
2022/07/11 06:05:49;;;;;;;;;;;;;;;20.01;100.00;99643.19;5054158;28;19974;-44
2022/07/11 06:10:58;;;;;;;;;;;;;;;19.45;100.00;99652.59;5054353;28;20542;-42
2022/07/11 06:13:24;;;;;;;;;;;;;;;20.12;100.00;99652.19;5055484;28;19935;-42
2022/07/11 06:15:49;;;;;;;;;;;;;;;20.54;100.00;99642.59;5055171;28;20606;-43
2022/07/11 06:18:14;;;;;;;;;;;;;;;20.47;100.00;99650.81;5054459;28;19916;-43
2022/07/11 06:20:39;;;;;;;;;;;;;;;20.33;100.00;99645.63;5053842;28;19947;-42
2022/07/11 06:23:06;;;;;;;;;;;;;;;20.67;100.00;99646.16;5055116;28;19927;-42
2022/07/11 06:25:31;;;;;;;;;;;;;;;20.23;100.00;99654.94;5053914;28;20027;-43
2022/07/11 06:27:56;;;;;;;;;;;;;;;20.55;100.00;99636.41;5054764;28;20003;-42
2022/07/11 06:30:22;;;;;;;;;;;;;;;21.13;100.00;99640.56;5053072;28;19931;-41
2022/07/11 06:32:47;;;;;;;;;;;;;;;21.39;100.00;99651.09;5052959;28;19989;-42
2022/07/11 06:35:12;;;;;;;;;;;;;;;20.12;100.00;99641.72;5054793;28;20007;-42
2022/07/11 06:37:37;;;;;;;;;;;;;;;20.55;100.00;99650.34;5053201;28;19968;-42
2022/07/11 06:40:09;;;;;;;;;;;;;;;20.45;100.00;99650.06;5053958;28;19939;-42
2022/07/11 06:42:35;;;;;;;;;;;;;;;20.61;100.00;99638.69;5053892;28;19927;-42
2022/07/11 06:45:00;;;;;;;;;;;;;;;20.08;100.00;99655.91;5054250;28;19916;-42
2022/07/11 06:47:25;;;;;;;;;;;;;;;20.39;100.00;99655.69;5053682;28;19916;-42
2022/07/11 06:49:50;;;;;;;;;;;;;;;20.56;100.00;99656.41;5053752;28;19920;-42
2022/07/11 06:52:15;;;;;;;;;;;;;;;20.53;100.00;99656.63;5054018;28;20050;-42
2022/07/11 06:54:41;;;;;;;;;;;;;;;20.37;100.00;99652.34;5054971;28;19916;-42
2022/07/11 06:57:06;;;;;;;;;;;;;;;20.32;100.00;99654.41;5053838;28;19924;-41
2022/07/11 06:59:31;;;;;;;;;;;;;;;20.58;100.00;99657.19;5053434;28;19965;-41
2022/07/11 07:01:58;;;;;;;;;;;;;;;21.34;100.00;99654.00;5054098;28;19939;-40
2022/07/11 07:04:23;;;;;;;;;;;;;;;20.39;100.00;99647.84;5053762;28;19916;-40
2022/07/11 07:06:49;;;;;;;;;;;;;;;20.57;100.00;99652.88;5053984;28;20324;-40
2022/07/11 07:09:14;;;;;;;;;;;;;;;20.82;100.00;99647.78;5054402;28;19916;-40
2022/07/11 07:11:39;;;;;;;;;;;;;;;20.63;100.00;99648.09;5054853;28;19958;-40
2022/07/11 07:14:05;;;;;;;;;;;;;;;21.00;100.00;99648.38;5055075;28;19935;-40
2022/07/11 07:16:30;;;;;;;;;;;;;;;20.95;100.00;99650.44;5053615;28;19920;-40
2022/07/11 07:18:55;;;;;;;;;;;;;;;21.57;100.00;99649.88;5054275;28;19970;-40
2022/07/11 07:21:21;;;;;;;;;;;;;;;21.15;100.00;99654.41;5055042;28;20024;-40
2022/07/11 07:23:46;;;;;;;;;;;;;;;21.10;100.00;99653.88;5054804;28;19999;-40
2022/07/11 07:26:11;;;;;;;;;;;;;;;20.88;100.00;99652.63;5054693;28;19916;-40
2022/07/11 07:28:38;;;;;;;;;;;;;;;20.88;100.00;99651.78;5054579;28;19913;-40
2022/07/11 07:31:04;;;;;;;;;;;;;;;21.01;100.00;99662.31;5053957;28;19916;-40
2022/07/11 07:33:29;;;;;;;;;;;;;;;20.67;100.00;99656.63;5053867;28;19948;-40
2022/07/11 07:35:54;;;;;;;;;;;;;;;20.98;100.00;99657.25;5054187;28;20010;-40
2022/07/11 07:38:19;;;;;;;;;;;;;;;20.73;100.00;99648.34;5055770;28;19939;-40
2022/07/11 07:40:45;;;;;;;;;;;;;;;20.95;100.00;99653.06;5053985;28;20709;-40
2022/07/11 07:43:10;;;;;;;;;;;;;;;21.43;100.00;99658.69;5053993;28;20400;-40
2022/07/11 07:45:35;;;;;;;;;;;;;;;20.98;100.00;99654.63;5054771;28;20356;-40
2022/07/11 07:48:00;;;;;;;;;;;;;;;21.48;100.00;99655.75;5054404;28;19982;-40
2022/07/11 07:50:26;;;;;;;;;;;;;;;21.44;100.00;99670.00;5055971;28;19928;-40
2022/07/11 07:52:51;;;;;;;;;;;;;;;20.84;100.00;99652.91;5057788;28;20015;-40
2022/07/11 07:55:16;;;;;;;;;;;;;;;20.75;100.00;99656.13;5059084;28;20381;-40
2022/07/11 07:57:41;;;;;;;;;;;;;;;20.86;100.00;99664.13;5057708;28;20015;-40
2022/07/11 08:02:51;;;;;;;;;;;;;;;20.71;100.00;99652.00;5057527;28;20005;-40
2022/07/11 08:05:19;;;;;;;;;;;;;;;20.79;100.00;99650.59;5057751;28;20015;-40
2022/07/11 08:07:44;;;;;;;;;;;;;;;20.56;100.00;99656.41;5057831;28;19913;-40
2022/07/11 08:10:10;;;;;;;;;;;;;;;20.45;100.00;99655.31;5057619;28;20309;-40
2022/07/11 08:12:35;;;;;;;;;;;;;;;20.86;100.00;99664.97;5057929;28;19982;-40
2022/07/11 08:15:00;;;;;;;;;;;;;;;20.80;100.00;99668.00;5057675;28;19969;-40
2022/07/11 08:17:25;;;;;;;;;;;;;;;20.26;100.00;99673.09;5057721;28;19978;-39
2022/07/11 08:19:51;;;;;;;;;;;;;;;20.65;100.00;99672.41;5056685;28;19921;-40
2022/07/11 08:22:16;;;;;;;;;;;;;;;20.98;100.00;99667.72;5057653;28;20008;-40
2022/07/11 08:24:41;;;;;;;;;;;;;;;20.39;100.00;99676.63;5057418;28;19973;-40
2022/07/11 08:27:06;;;;;;;;;;;;;;;19.94;100.00;99675.03;5057936;28;19923;-40
2022/07/11 08:29:32;;;;;;;;;;;;;;;20.49;100.00;99679.50;5056604;28;19948;-40
2022/07/11 08:31:57;;;;;;;;;;;;;;;20.41;100.00;99684.38;5057010;28;19928;-40
2022/07/11 08:34:22;;;;;;;;;;;;;;;20.63;100.00;99683.91;5056450;28;19916;-39
2022/07/11 08:36:47;;;;;;;;;;;;;;;20.40;100.00;99680.91;5056630;28;20431;-39
2022/07/11 08:39:13;;;;;;;;;;;;;;;20.84;100.00;99681.72;5055171;28;21246;-39
2022/07/11 08:41:39;;;;;;;;;;;;;;;20.86;100.00;99675.44;5056439;28;19917;-39
2022/07/11 08:44:04;;;;;;;;;;;;;;;21.60;100.00;99675.91;5057012;28;19935;-39
2022/07/11 08:46:30;;;;;;;;;;;;;;;21.56;100.00;99677.06;5055451;28;19924;-41
2022/07/11 08:48:55;;;;;;;;;;;;;;;21.76;100.00;99682.72;5055668;28;19923;-40
2022/07/11 08:51:20;;;;;;;;;;;;;;;22.00;100.00;99675.00;5056477;28;20641;-39
2022/07/11 08:53:45;;;;;;;;;;;;;;;21.96;100.00;99676.97;5055065;28;20005;-40
2022/07/11 08:56:15;;;;;;;;;;;;;;;22.13;100.00;99687.16;5056587;28;19920;-40
2022/07/11 08:58:40;;;;;;;;;;;;;;;22.32;100.00;99678.88;5055958;28;20000;-40
2022/07/11 09:01:06;;;;;;;;;;;;;;;22.65;100.00;99672.19;5053967;28;19917;-40
2022/07/11 09:03:31;;;;;;;;;;;;;;;22.64;100.00;99673.13;5056613;28;19946;-39
2022/07/11 09:05:56;;;;;;;;;;;;;;;22.50;100.00;99681.97;5056566;28;19920;-39
2022/07/11 09:08:21;;;;;;;;;;;;;;;22.90;100.00;99673.91;5055003;28;20439;-40
2022/07/11 09:10:46;;;;;;;;;;;;;;;23.49;100.00;99680.13;5055984;28;20460;-40
2022/07/11 09:13:12;;;;;;;;;;;;;;;21.77;100.00;99687.03;5055027;28;20373;-40
2022/07/11 09:15:38;;;;;;;;;;;;;;;23.91;100.00;99685.78;5055952;28;19922;-39
2022/07/11 09:18:04;;;;;;;;;;;;;;;23.12;100.00;99688.13;5056633;28;19926;-40
2022/07/11 09:26:17;;;;;;;;;;;;;;;22.96;100.00;99683.94;5055516;28;19934;-39
2022/07/11 09:28:42;;;;;;;;;;;;;;;22.27;100.00;99696.72;5055118;28;19920;-39
2022/07/11 09:31:17;;;;;;;;;;;;;;;22.66;100.00;99696.66;5053921;28;20011;-39
2022/07/11 09:34:01;;;;;;;;;;;;;;;22.94;100.00;99691.13;5053746;28;19935;-39
2022/07/11 09:36:33;;;;;;;;;;;;;;;23.26;100.00;99690.56;5054726;28;19974;-39
2022/07/11 09:38:59;;;;;;;;;;;;;;;23.17;100.00;99691.22;5055613;28;19930;-40
2022/07/11 09:41:24;;;;;;;;;;;;;;;23.82;100.00;99689.09;5054511;28;19920;-40
2022/07/11 09:43:50;;;;;;;;;;;;;;;24.00;100.00;99696.41;5056101;28;19916;-40
2022/07/11 09:46:18;;;;;;;;;;;;;;;23.53;100.00;99697.34;5055226;28;19917;-40
2022/07/11 09:48:44;;;;;;;;;;;;;;;22.81;100.00;99695.56;5055280;28;19912;-40
2022/07/11 09:51:09;;;;;;;;;;;;;;;22.47;100.00;99687.47;5052948;28;19916;-40
2022/07/11 09:53:34;;;;;;;;;;;;;;;21.74;100.00;99692.50;5054398;28;19917;-39
2022/07/11 09:55:59;;;;;;;;;;;;;;;22.18;100.00;99696.50;5055762;28;20019;-40
2022/07/11 09:58:28;;;;;;;;;;;;;;;21.65;100.00;99696.56;5054908;28;20690;-40
2022/07/11 10:00:54;;;;;;;;;;;;;;;21.84;100.00;99698.78;5054690;28;20019;-40
2022/07/11 10:03:20;;;;;;;;;;;;;;;21.89;100.00;99704.56;5055530;28;19939;-40
2022/07/11 10:05:48;;;;;;;;;;;;;;;22.10;100.00;99692.63;5054428;28;20218;-40
2022/07/11 10:08:14;;;;;;;;;;;;;;;23.08;100.00;99697.16;5054908;28;19921;-39
2022/07/11 10:10:39;;;;;;;;;;;;;;;22.81;100.00;99700.81;5054257;28;19965;-40
2022/07/11 10:13:04;;;;;;;;;;;;;;;22.90;100.00;99702.78;5054896;28;19916;-40
2022/07/11 10:15:30;;;;;;;;;;;;;;;22.95;100.00;99703.28;5054334;28;19916;-40
2022/07/11 10:18:16;;;;;;;;;;;;;;;23.55;100.00;99706.81;5053039;28;19916;-40
2022/07/11 10:21:01;;;;;;;;;;;;;;;23.75;100.00;99700.09;5031711;28;19916;-40
2022/07/11 10:23:26;;;;;;;;;;;;;;;22.55;100.00;99700.88;5046706;28;19916;-40
2022/07/11 10:25:54;;;;;;;;;;;;;;;23.15;100.00;99688.75;5053955;28;19917;-40
2022/07/11 10:28:39;;;;;;;;;;;;;;;23.67;100.00;99696.31;5050780;28;19921;-40
2022/07/11 10:31:04;;;;;;;;;;;;;;;22.55;100.00;99693.00;5054343;28;19916;-40
2022/07/11 10:33:30;;;;;;;;;;;;;;;22.90;100.00;99702.78;5052375;28;19917;-40
2022/07/11 10:35:55;;;;;;;;;;;;;;;23.28;100.00;99708.84;5053440;28;19927;-39
2022/07/11 10:38:21;;;;;;;;;;;;;;;22.93;100.00;99712.22;5054411;28;19916;-40
2022/07/11 10:40:51;;;;;;;;;;;;;;;23.64;100.00;99718.44;5053251;28;19920;-40
2022/07/11 10:43:22;;;;;;;;;;;;;;;23.54;100.00;99715.66;5054150;28;19927;-40
2022/07/11 10:45:54;;;;;;;;;;;;;;;23.36;100.00;99717.84;5052310;28;19916;-40
2022/07/11 10:48:19;;;;;;;;;;;;;;;23.55;100.00;99727.00;5052796;28;20417;-40
2022/07/11 10:50:44;;;;;;;;;;;;;;;24.14;100.00;99726.94;5053074;28;19973;-40
2022/07/11 10:53:10;;;;;;;;;;;;;;;23.97;100.00;99716.84;5053813;28;19957;-40
2022/07/11 10:55:36;;;;;;;;;;;;;;;23.40;100.00;99723.75;5053151;28;19916;-40
2022/07/11 10:58:04;;;;;;;;;;;;;;;23.34;100.00;99719.75;5052528;28;19916;-40
2022/07/11 11:00:31;;;;;;;;;;;;;;;23.57;100.00;99723.31;5053067;28;19917;-40
2022/07/11 11:02:59;;;;;;;;;;;;;;;23.87;100.00;99713.25;5053786;28;19947;-40
2022/07/11 11:05:48;;;;;;;;;;;;;;;22.52;100.00;99706.34;5052568;28;20475;-40
2022/07/11 11:08:35;;;;;;;;;;;;;;;22.89;100.00;99703.72;5053978;28;20023;-40
2022/07/11 11:11:00;;;;;;;;;;;;;;;24.05;100.00;99692.59;5053083;28;19920;-40
2022/07/11 11:13:26;;;;;;;;;;;;;;;25.29;100.00;99680.09;5053821;28;19927;-40
2022/07/11 11:15:52;;;;;;;;;;;;;;;24.66;100.00;99694.91;5053438;28;19943;-40
2022/07/11 11:18:23;;;;;;;;;;;;;;;23.96;100.00;99704.66;5053332;28;19916;-40
2022/07/11 11:21:07;;;;;;;;;;;;;;;24.94;100.00;99699.63;5052998;28;20368;-40
2022/07/11 11:23:33;;;;;;;;;;;;;;;25.39;100.00;99702.13;5054156;28;19924;-40
2022/07/11 11:26:17;;;;;;;;;;;;;;;24.02;100.00;99717.34;5056192;28;20896;-40
2022/07/11 11:29:02;;;;;;;;;;;;;;;24.17;100.00;99708.25;5057498;28;20010;-40
2022/07/11 11:31:31;;;;;;;;;;;;;;;23.47;100.00;99713.56;5057028;28;19923;-40
2022/07/11 11:33:57;;;;;;;;;;;;;;;24.91;100.00;99706.94;5057489;28;19917;-40
2022/07/11 11:36:23;;;;;;;;;;;;;;;23.34;100.00;99714.50;5057486;28;19931;-40
2022/07/11 11:38:48;;;;;;;;;;;;;;;23.54;100.00;99714.81;5057345;28;19916;-40
2022/07/11 11:41:14;;;;;;;;;;;;;;;23.39;100.00;99717.63;5056257;28;19921;-40
2022/07/11 11:43:44;;;;;;;;;;;;;;;23.03;100.00;99720.31;5057315;28;20016;-40
2022/07/11 11:46:09;;;;;;;;;;;;;;;23.13;100.00;99708.19;5055655;28;20313;-40
2022/07/11 11:48:36;;;;;;;;;;;;;;;23.74;100.00;99703.69;5055756;28;19917;-39
2022/07/11 11:51:05;;;;;;;;;;;;;;;24.59;100.00;99703.28;5056723;28;19939;-40
2022/07/11 11:53:37;;;;;;;;;;;;;;;24.11;100.00;99716.66;5057005;28;19916;-40
2022/07/11 11:56:23;;;;;;;;;;;;;;;24.67;100.00;99707.94;5056470;28;19920;-39
2022/07/11 11:58:49;;;;;;;;;;;;;;;24.88;100.00;99696.63;5056302;28;20438;-40
2022/07/11 12:01:20;;;;;;;;;;;;;;;24.85;100.00;99697.72;5057025;28;19942;-39
2022/07/11 12:03:52;;;;;;;;;;;;;;;24.56;100.00;99703.53;5056796;28;19916;-40
2022/07/11 12:06:18;;;;;;;;;;;;;;;24.89;100.00;99691.25;5056842;28;20418;-39
2022/07/11 12:08:43;;;;;;;;;;;;;;;23.66;100.00;99711.25;5054595;28;19916;-40
2022/07/11 12:11:11;;;;;;;;;;;;;;;24.63;100.00;99702.09;5056086;28;19920;-39
2022/07/11 12:13:37;;;;;;;;;;;;;;;24.25;100.00;99704.22;5057083;28;20018;-39
2022/07/11 12:18:49;;;;;;;;;;;;;;;24.09;100.00;99709.84;5056941;28;19978;-39
2022/07/11 12:21:14;;;;;;;;;;;;;;;23.87;100.00;99710.63;5056300;28;19967;-40
2022/07/11 12:23:39;;;;;;;;;;;;;;;23.76;100.00;99703.53;5055985;28;20004;-40
2022/07/11 12:26:04;;;;;;;;;;;;;;;23.97;100.00;99707.19;5055262;28;20011;-40
2022/07/11 12:28:31;;;;;;;;;;;;;;;23.98;100.00;99698.31;5055468;28;19951;-40
2022/07/11 12:30:57;;;;;;;;;;;;;;;24.78;100.00;99699.19;5055609;28;19924;-40
2022/07/11 12:33:25;;;;;;;;;;;;;;;25.19;100.00;99695.84;5056458;28;20369;-40
2022/07/11 12:35:53;;;;;;;;;;;;;;;25.16;100.00;99697.88;5055042;28;19925;-39
2022/07/11 12:38:19;;;;;;;;;;;;;;;25.31;100.00;99696.63;5055987;28;19939;-39
2022/07/11 12:40:57;;;;;;;;;;;;;;;26.31;100.00;99692.69;5054185;28;20417;-40
2022/07/11 12:44:58;;;;;;;;;;;;;;;25.73;100.00;99691.41;5055434;28;19917;-39
2022/07/11 12:46:22;;;;;;;;;;;;;;;24.16;100.00;99684.72;5056458;28;20385;-40
2022/07/11 12:48:49;;;;;;;;;;;;;;;24.66;100.00;99681.72;5056144;28;19916;-39
2022/07/11 12:51:27;;;;;;;;;;;;;;;24.66;100.00;99682.56;5055021;28;20388;-40